createdAt,value
2022-09-17T00:01:07.347Z,15.73
2022-09-17T00:03:34.996Z,15.44
2022-09-17T00:06:03.186Z,15.82
2022-09-17T00:08:30.355Z,15.73
2022-09-17T00:10:56.840Z,15.66
2022-09-17T00:13:23.416Z,15.02
2022-09-17T00:15:51.156Z,15.61
2022-09-17T00:18:17.964Z,15.71
2022-09-17T00:20:46.962Z,16.17
2022-09-17T00:23:14.664Z,15.49
2022-09-17T00:25:42.821Z,15.85
2022-09-17T00:28:09.692Z,15.33
2022-09-17T00:30:40.449Z,15.45
2022-09-17T00:33:06.868Z,15.82
2022-09-17T00:35:33.335Z,15.77
2022-09-17T00:37:59.866Z,15.52
2022-09-17T00:40:26.345Z,15.55
2022-09-17T00:42:55.582Z,15.68
2022-09-17T00:45:23.233Z,14.76
2022-09-17T00:47:58.846Z,14.61
2022-09-17T00:50:28.282Z,15.26
2022-09-17T00:53:05.268Z,15.68
2022-09-17T00:55:36.384Z,15.48
2022-09-17T00:58:06.542Z,15.29
2022-09-17T01:00:33.026Z,16.02
2022-09-17T01:03:00.251Z,15.43
2022-09-17T01:05:47.195Z,15.49
2022-09-17T01:08:21.401Z,15.40
2022-09-17T01:11:19.403Z,15.18
2022-09-17T01:13:58.050Z,15.32
2022-09-17T01:17:22.131Z,15.69
2022-09-17T01:20:11.618Z,15.16
2022-09-17T01:23:05.662Z,15.78
2022-09-17T01:26:16.986Z,15.60
2022-09-17T01:29:14.755Z,16.13
2022-09-17T01:31:50.576Z,16.13
2022-09-17T01:34:29.964Z,15.35
2022-09-17T01:37:02.995Z,15.10
2022-09-17T01:39:38.617Z,15.35
2022-09-17T01:42:17.035Z,15.68
2022-09-17T01:45:09.192Z,15.84
2022-09-17T01:47:47.700Z,15.48
2022-09-17T01:50:25.619Z,15.49
2022-09-17T01:52:54.959Z,15.28
2022-09-17T01:55:25.706Z,15.71
2022-09-17T01:57:58.514Z,16.02
2022-09-17T02:00:24.957Z,14.91
2022-09-17T02:03:22.855Z,15.63
2022-09-17T02:05:55.777Z,15.40
2022-09-17T02:08:26.260Z,15.11
2022-09-17T02:11:02.256Z,15.40
2022-09-17T02:13:35.018Z,15.43
2022-09-17T02:16:13.173Z,15.02
2022-09-17T02:18:50.642Z,15.23
2022-09-17T02:21:55.719Z,15.51
2022-09-17T02:24:25.729Z,14.60
2022-09-17T02:27:07.352Z,15.40
2022-09-17T02:29:43.523Z,14.35
2022-09-17T02:32:11.692Z,14.81
2022-09-17T02:34:38.543Z,14.72
2022-09-17T02:37:06.310Z,15.18
2022-09-17T02:39:33.204Z,15.58
2022-09-17T02:42:33.615Z,15.25
2022-09-17T02:45:05.972Z,15.22
2022-09-17T02:48:14.384Z,15.80
2022-09-17T02:51:09.828Z,15.15
2022-09-17T02:53:44.881Z,15.64
2022-09-17T02:56:26.226Z,15.71
2022-09-17T02:59:31.468Z,14.79
2022-09-17T03:02:09.036Z,15.64
2022-09-17T03:04:38.336Z,15.59
2022-09-17T03:07:09.028Z,15.72
2022-09-17T03:09:36.126Z,15.06
2022-09-17T03:12:02.895Z,15.14
2022-09-17T03:14:29.311Z,15.44
2022-09-17T03:16:55.755Z,15.04
2022-09-17T03:19:22.231Z,14.97
2022-09-17T03:21:48.618Z,15.20
2022-09-17T03:24:15.229Z,15.32
2022-09-17T03:26:41.821Z,15.24
2022-09-17T03:29:08.279Z,14.66
2022-09-17T03:31:34.805Z,15.04
2022-09-17T03:34:01.259Z,15.20
2022-09-17T03:36:28.602Z,14.99
2022-09-17T03:38:57.962Z,14.86
2022-09-17T03:41:25.190Z,15.26
2022-09-17T03:43:51.947Z,15.75
2022-09-17T03:46:19.102Z,14.97
2022-09-17T03:48:45.880Z,14.66
2022-09-17T03:51:12.485Z,15.33
2022-09-17T03:53:38.904Z,15.34
2022-09-17T03:56:06.915Z,15.05
2022-09-17T03:58:34.784Z,15.34
2022-09-17T04:01:01.266Z,14.42
2022-09-17T04:03:28.305Z,15.27
2022-09-17T04:05:55.215Z,15.52
2022-09-17T04:08:21.900Z,15.37
2022-09-17T04:10:48.707Z,15.18
2022-09-17T04:13:16.777Z,14.43
2022-09-17T04:15:43.347Z,15.24
2022-09-17T04:18:10.519Z,15.15
2022-09-17T04:20:36.949Z,15.43
2022-09-17T04:23:03.866Z,15.41
2022-09-17T04:25:31.003Z,15.35
2022-09-17T04:27:57.403Z,15.33
2022-09-17T04:30:23.821Z,14.95
2022-09-17T04:32:50.289Z,15.09
2022-09-17T04:35:16.914Z,14.92
2022-09-17T04:37:43.315Z,14.63
2022-09-17T04:40:10.547Z,14.68
2022-09-17T04:42:36.996Z,15.35
2022-09-17T04:45:03.544Z,14.46
2022-09-17T04:47:29.946Z,14.67
2022-09-17T04:49:56.334Z,14.58
2022-09-17T04:52:22.751Z,15.15
2022-09-17T04:54:49.132Z,14.97
2022-09-17T04:57:15.537Z,14.89
2022-09-17T04:59:41.935Z,14.20
2022-09-17T05:02:08.551Z,14.82
2022-09-17T05:04:34.960Z,14.52
2022-09-17T05:07:02.729Z,15.14
2022-09-17T05:09:29.104Z,14.65
2022-09-17T05:11:55.492Z,14.42
2022-09-17T05:14:21.899Z,14.98
2022-09-17T05:16:48.381Z,15.00
2022-09-17T05:19:14.778Z,14.53
2022-09-17T05:21:41.191Z,14.62
2022-09-17T05:24:07.596Z,15.21
2022-09-17T05:26:34.009Z,15.00
2022-09-17T05:29:00.571Z,14.84
2022-09-17T05:31:27.130Z,14.68
2022-09-17T05:33:53.533Z,14.60
2022-09-17T05:36:19.967Z,14.81
2022-09-17T05:38:46.461Z,15.03
2022-09-17T05:41:12.890Z,14.71
2022-09-17T05:43:39.258Z,15.42
2022-09-17T05:46:06.553Z,15.13
2022-09-17T05:48:33.033Z,15.55
2022-09-17T05:50:59.454Z,14.35
2022-09-17T05:53:25.863Z,14.71
2022-09-17T05:55:57.162Z,14.86
2022-09-17T05:58:23.733Z,14.47
2022-09-17T06:00:50.641Z,13.88
2022-09-17T06:03:19.256Z,14.38
2022-09-17T06:05:58.062Z,14.76
2022-09-17T06:08:25.779Z,14.69
2022-09-17T06:10:52.187Z,14.83
2022-09-17T06:13:19.927Z,14.94
2022-09-17T06:15:53.889Z,14.48
2022-09-17T06:18:20.799Z,14.58
2022-09-17T06:21:00.978Z,14.57
2022-09-17T06:23:28.675Z,15.14
2022-09-17T06:25:57.313Z,14.74
2022-09-17T06:28:24.956Z,14.66
2022-09-17T06:30:55.837Z,14.63
2022-09-17T06:33:23.547Z,14.56
2022-09-17T06:35:57.266Z,14.52
2022-09-17T06:38:23.692Z,15.06
2022-09-17T06:40:53.370Z,15.46
2022-09-17T06:43:20.897Z,14.62
2022-09-17T06:45:54.762Z,14.73
2022-09-17T06:48:22.998Z,15.06
2022-09-17T06:50:50.548Z,14.90
2022-09-17T06:53:17.395Z,15.85
2022-09-17T06:55:43.769Z,15.57
2022-09-17T06:58:10.163Z,15.75
2022-09-17T07:00:36.558Z,15.25
2022-09-17T07:03:03.135Z,15.53
2022-09-17T07:05:32.000Z,15.68
2022-09-17T07:08:01.315Z,15.69
2022-09-17T07:10:27.713Z,15.36
2022-09-17T07:12:54.664Z,16.21
2022-09-17T07:15:21.734Z,15.91
2022-09-17T07:17:48.465Z,15.93
2022-09-17T07:20:15.400Z,16.36
2022-09-17T07:22:41.820Z,15.79
2022-09-17T07:25:08.984Z,15.33
2022-09-17T07:27:35.411Z,14.52
2022-09-17T07:30:01.989Z,15.43
2022-09-17T07:32:31.612Z,15.98
2022-09-17T07:34:58.025Z,16.09
2022-09-17T07:37:24.470Z,16.57
2022-09-17T07:39:51.030Z,16.57
2022-09-17T07:42:17.462Z,16.64
2022-09-17T07:44:44.119Z,17.22
2022-09-17T07:47:10.530Z,17.07
2022-09-17T07:49:36.929Z,17.30
2022-09-17T07:52:06.320Z,16.78
2022-09-17T07:54:38.604Z,17.61
2022-09-17T07:57:05.222Z,17.20
2022-09-17T07:59:31.774Z,16.48
2022-09-17T08:01:58.274Z,16.60
2022-09-17T08:04:24.840Z,17.28
2022-09-17T08:06:51.248Z,17.34
2022-09-17T08:09:18.580Z,17.99
2022-09-17T08:11:55.650Z,17.94
2022-09-17T08:14:27.041Z,17.83
2022-09-17T08:16:55.719Z,17.60
2022-09-17T08:19:22.249Z,18.31
2022-09-17T08:21:48.732Z,18.70
2022-09-17T08:24:15.264Z,17.46
2022-09-17T08:26:41.754Z,18.66
2022-09-17T08:29:08.158Z,17.47
2022-09-17T08:31:34.759Z,17.81
2022-09-17T08:34:08.212Z,18.06
2022-09-17T08:36:34.604Z,18.07
2022-09-17T08:39:01.266Z,19.12
2022-09-17T08:41:36.742Z,19.18
2022-09-17T08:44:26.234Z,19.18
2022-09-17T08:47:00.819Z,18.76
2022-09-17T08:49:30.115Z,18.75
2022-09-17T08:51:56.453Z,18.26
2022-09-17T08:54:49.232Z,18.98
2022-09-17T08:57:31.884Z,17.60
2022-09-17T08:59:58.267Z,18.65
2022-09-17T09:03:14.136Z,18.59
2022-09-17T09:05:48.743Z,19.14
2022-09-17T09:08:26.188Z,19.05
2022-09-17T09:10:55.834Z,19.65
2022-09-17T09:13:28.459Z,18.75
2022-09-17T09:16:11.336Z,18.26
2022-09-17T09:18:40.980Z,18.15
2022-09-17T09:21:22.532Z,18.28
2022-09-17T09:24:15.139Z,18.42
2022-09-17T09:26:50.119Z,18.02
2022-09-17T09:29:25.785Z,18.17
2022-09-17T09:32:16.191Z,18.39
2022-09-17T09:34:45.451Z,18.20
2022-09-17T09:37:16.583Z,18.63
2022-09-17T09:39:46.335Z,18.73
2022-09-17T09:42:32.895Z,17.25
2022-09-17T09:45:17.843Z,18.58
2022-09-17T09:47:49.301Z,17.89
2022-09-17T09:51:04.784Z,18.30
2022-09-17T09:54:10.804Z,18.49
2022-09-17T09:56:58.992Z,18.52
2022-09-17T09:59:26.774Z,18.10
2022-09-17T10:01:53.429Z,18.21
2022-09-17T10:04:25.922Z,18.27
2022-09-17T10:07:13.807Z,18.05
2022-09-17T10:09:46.264Z,18.08
2022-09-17T10:12:12.645Z,19.14
2022-09-17T10:14:44.506Z,18.93
2022-09-17T10:17:20.754Z,18.73
2022-09-17T10:20:18.287Z,18.28
2022-09-17T10:22:48.842Z,19.46
2022-09-17T10:25:31.361Z,18.94
2022-09-17T10:28:01.663Z,18.41
2022-09-17T10:30:28.345Z,19.11
2022-09-17T10:33:15.655Z,18.89
2022-09-17T10:35:55.208Z,18.64
2022-09-17T10:38:31.129Z,18.80
2022-09-17T10:41:30.021Z,18.56
2022-09-17T10:43:56.418Z,19.09
2022-09-17T10:46:33.752Z,18.87
2022-09-17T10:49:18.973Z,19.45
2022-09-17T10:51:45.460Z,19.53
2022-09-17T10:54:17.960Z,18.80
2022-09-17T10:56:54.390Z,19.59
2022-09-17T10:59:39.477Z,19.31
2022-09-17T11:02:27.906Z,19.10
2022-09-17T11:05:21.793Z,18.54
2022-09-17T11:08:01.259Z,18.78
2022-09-17T11:10:40.912Z,19.54
2022-09-17T11:13:27.604Z,18.77
2022-09-17T11:16:06.205Z,18.63
2022-09-17T11:18:37.708Z,18.84
2022-09-17T11:21:28.326Z,18.83
2022-09-17T11:24:22.637Z,18.43
2022-09-17T11:26:59.340Z,19.35
2022-09-17T11:29:44.152Z,19.12
2022-09-17T11:32:22.554Z,18.67
2022-09-17T11:35:06.762Z,17.94
2022-09-17T11:37:48.926Z,18.95
2022-09-17T11:40:17.964Z,19.10
2022-09-17T11:43:07.383Z,19.26
2022-09-17T11:45:39.161Z,19.11
2022-09-17T11:48:22.381Z,19.35
2022-09-17T11:51:05.071Z,19.58
2022-09-17T11:53:37.957Z,19.24
2022-09-17T11:56:23.460Z,18.36
2022-09-17T11:58:52.654Z,19.69
2022-09-17T12:01:26.683Z,18.56
2022-09-17T12:04:05.463Z,18.90
2022-09-17T12:06:44.580Z,18.93
2022-09-17T12:09:17.118Z,18.83
2022-09-17T12:11:43.466Z,17.44
2022-09-17T12:14:20.905Z,17.60
2022-09-17T12:16:52.844Z,17.42
2022-09-17T12:19:31.400Z,17.58
2022-09-17T12:22:26.153Z,17.60
2022-09-17T12:24:54.312Z,17.32
2022-09-17T12:27:58.121Z,17.48
2022-09-17T12:30:48.912Z,17.70
2022-09-17T12:33:38.480Z,17.48
2022-09-17T12:36:17.173Z,17.07
2022-09-17T12:39:03.273Z,17.35
2022-09-17T12:41:56.383Z,16.80
2022-09-17T12:44:40.767Z,15.70
2022-09-17T12:47:33.354Z,16.51
2022-09-17T12:50:20.400Z,16.58
2022-09-17T12:53:11.151Z,16.69
2022-09-17T12:56:16.098Z,16.72
2022-09-17T12:58:57.884Z,16.52
2022-09-17T13:01:27.173Z,16.74
2022-09-17T13:04:02.356Z,16.42
2022-09-17T13:06:56.460Z,15.82
2022-09-17T13:09:57.013Z,16.12
2022-09-17T13:12:47.502Z,16.72
2022-09-17T13:15:37.213Z,16.73
2022-09-17T13:18:27.246Z,16.28
2022-09-17T13:21:03.135Z,16.27
2022-09-17T13:23:44.591Z,16.45
2022-09-17T13:26:14.763Z,16.40
2022-09-17T13:28:47.473Z,16.57
2022-09-17T13:31:21.420Z,15.41
2022-09-17T13:33:58.922Z,15.94
2022-09-17T13:36:40.776Z,14.84
2022-09-17T13:39:11.348Z,15.98
2022-09-17T13:41:41.930Z,14.52
2022-09-17T13:44:10.736Z,15.47
2022-09-17T13:46:38.652Z,14.42
2022-09-17T13:49:15.304Z,14.61
2022-09-17T13:51:45.269Z,14.19
2022-09-17T13:54:12.028Z,14.84
2022-09-17T13:56:48.589Z,14.10
2022-09-17T13:59:19.274Z,14.68
2022-09-17T14:01:48.764Z,15.01
2022-09-17T14:04:43.238Z,14.37
2022-09-17T14:07:21.966Z,15.05
2022-09-17T14:09:51.457Z,14.98
2022-09-17T14:12:57.501Z,15.05
2022-09-17T14:15:43.300Z,15.16
2022-09-17T14:18:28.170Z,14.70
2022-09-17T14:21:06.251Z,15.02
2022-09-17T14:23:44.559Z,14.82
2022-09-17T14:26:18.147Z,14.18
2022-09-17T14:29:20.600Z,14.30
2022-09-17T14:31:47.386Z,14.43
2022-09-17T14:34:21.399Z,14.31
2022-09-17T14:36:49.319Z,14.39
2022-09-17T14:39:25.100Z,14.12
2022-09-17T14:41:54.439Z,14.76
2022-09-17T14:44:24.297Z,14.88
2022-09-17T14:47:02.262Z,14.03
2022-09-17T14:49:32.456Z,14.63
2022-09-17T14:51:59.649Z,15.04
2022-09-17T14:54:26.630Z,15.31
2022-09-17T14:57:01.017Z,15.33
2022-09-17T14:59:33.542Z,14.59
2022-09-17T15:02:00.245Z,14.06
2022-09-17T15:04:28.318Z,14.43
2022-09-17T15:07:12.452Z,14.58
2022-09-17T15:09:38.954Z,14.03
2022-09-17T15:12:06.420Z,14.31
2022-09-17T15:14:36.856Z,14.74
2022-09-17T15:17:04.949Z,14.01
2022-09-17T15:19:40.978Z,14.68
2022-09-17T15:22:16.738Z,14.90
2022-09-17T15:24:50.393Z,13.60
2022-09-17T15:27:22.128Z,14.17
2022-09-17T15:29:54.287Z,14.42
2022-09-17T15:32:21.028Z,14.44
2022-09-17T15:35:13.341Z,14.29
2022-09-17T15:38:05.699Z,13.80
2022-09-17T15:40:38.065Z,14.19
2022-09-17T15:43:23.092Z,13.91
2022-09-17T15:45:49.583Z,14.04
2022-09-17T15:48:27.804Z,14.05
2022-09-17T15:50:56.070Z,14.24
2022-09-17T15:53:26.893Z,13.36
2022-09-17T15:56:16.970Z,14.03
2022-09-17T15:58:46.148Z,13.94
2022-09-17T16:01:15.655Z,13.57
2022-09-17T16:03:43.271Z,14.28
2022-09-17T16:06:29.873Z,14.49
2022-09-17T16:08:58.659Z,14.74
2022-09-17T16:11:27.366Z,14.07
2022-09-17T16:13:55.747Z,14.26
2022-09-17T16:16:36.052Z,14.41
2022-09-17T16:19:05.820Z,13.87
2022-09-17T16:21:32.292Z,14.77
2022-09-17T16:23:59.213Z,13.99
2022-09-17T16:26:30.601Z,14.17
2022-09-17T16:29:02.902Z,14.08
2022-09-17T16:31:29.946Z,14.26
2022-09-17T16:33:56.451Z,14.34
2022-09-17T16:36:23.005Z,14.01
2022-09-17T16:38:49.384Z,14.29
2022-09-17T16:41:15.806Z,14.04
2022-09-17T16:43:42.200Z,13.94
2022-09-17T16:46:11.074Z,14.44
2022-09-17T16:48:38.123Z,14.25
2022-09-17T16:51:08.879Z,14.21
2022-09-17T16:53:35.396Z,14.33
2022-09-17T16:56:02.172Z,14.04
2022-09-17T16:58:28.690Z,14.32
2022-09-17T17:00:55.150Z,13.76
2022-09-17T17:03:21.702Z,14.50
2022-09-17T17:05:48.247Z,14.32
2022-09-17T17:08:14.761Z,14.37
2022-09-17T17:10:41.515Z,14.53
2022-09-17T17:13:07.885Z,14.03
2022-09-17T17:15:34.531Z,13.76
2022-09-17T17:18:00.929Z,13.42
2022-09-17T17:20:27.318Z,13.81
2022-09-17T17:22:55.101Z,14.29
2022-09-17T17:25:23.574Z,13.56
2022-09-17T17:27:50.299Z,13.97
2022-09-17T17:30:17.338Z,13.98
2022-09-17T17:32:48.103Z,14.21
2022-09-17T17:35:14.531Z,14.10
2022-09-17T17:37:41.056Z,13.52
2022-09-17T17:40:10.848Z,14.31
2022-09-17T17:42:39.474Z,14.16
2022-09-17T17:45:07.159Z,13.63
2022-09-17T17:47:33.945Z,14.03
2022-09-17T17:50:00.364Z,14.13
2022-09-17T17:52:27.422Z,14.26
2022-09-17T17:54:54.087Z,13.90
2022-09-17T17:57:20.506Z,13.79
2022-09-17T17:59:46.901Z,14.27
2022-09-17T18:02:13.369Z,13.29
2022-09-17T18:04:39.937Z,14.28
2022-09-17T18:07:07.637Z,14.01
2022-09-17T18:09:34.226Z,14.50
2022-09-17T18:12:00.628Z,13.37
2022-09-17T18:14:27.439Z,13.93
2022-09-17T18:16:54.098Z,13.74
2022-09-17T18:19:20.465Z,13.33
2022-09-17T18:21:46.939Z,14.00
2022-09-17T18:24:13.372Z,13.69
2022-09-17T18:26:39.766Z,13.77
2022-09-17T18:29:08.271Z,13.83
2022-09-17T18:31:35.897Z,13.28
2022-09-17T18:34:09.849Z,13.21
2022-09-17T18:36:37.679Z,13.31
2022-09-17T18:39:33.167Z,13.61
2022-09-17T18:41:53.371Z,13.55
2022-09-17T18:44:21.642Z,13.29
2022-09-17T18:46:49.495Z,12.89
2022-09-17T18:49:16.169Z,13.08
2022-09-17T18:51:42.848Z,13.53
2022-09-17T18:54:10.175Z,13.45
2022-09-17T18:56:37.163Z,12.98
2022-09-17T18:59:07.988Z,13.78
2022-09-17T19:01:35.427Z,13.47
2022-09-17T19:04:02.599Z,13.71
2022-09-17T19:06:31.902Z,13.67
2022-09-17T19:09:02.890Z,13.38
2022-09-17T19:11:29.331Z,13.55
2022-09-17T19:13:55.796Z,13.59
2022-09-17T19:16:22.739Z,13.41
2022-09-17T19:18:49.501Z,13.62
2022-09-17T19:21:18.636Z,13.71
2022-09-17T19:23:47.174Z,13.82
2022-09-17T19:26:23.463Z,13.43
2022-09-17T19:28:54.079Z,13.15
2022-09-17T19:31:20.959Z,13.73
2022-09-17T19:33:47.646Z,13.77
2022-09-17T19:36:16.286Z,13.19
2022-09-17T19:38:43.723Z,13.75
2022-09-17T19:41:13.111Z,14.04
2022-09-17T19:43:39.989Z,13.17
2022-09-17T19:46:12.405Z,13.58
2022-09-17T19:48:47.880Z,13.57
2022-09-17T19:51:15.603Z,13.49
2022-09-17T19:53:42.298Z,13.73
2022-09-17T19:56:17.593Z,13.76
2022-09-17T19:58:44.866Z,13.40
2022-09-17T20:01:11.756Z,14.05
2022-09-17T20:03:39.467Z,13.57
2022-09-17T20:06:08.571Z,13.73
2022-09-17T20:08:39.390Z,13.66
2022-09-17T20:11:10.401Z,13.66
2022-09-17T20:13:37.287Z,13.66
2022-09-17T20:16:09.672Z,13.30
2022-09-17T20:18:36.640Z,13.08
2022-09-17T20:21:27.671Z,14.17
2022-09-17T20:23:54.995Z,14.07
2022-09-17T20:26:22.207Z,13.97
2022-09-17T20:28:51.047Z,13.98
2022-09-17T20:31:20.376Z,13.81
2022-09-17T20:33:47.693Z,14.00
2022-09-17T20:36:17.109Z,13.19
2022-09-17T20:41:34.880Z,13.16
2022-09-17T20:44:01.507Z,13.86
2022-09-17T20:46:29.509Z,14.18
2022-09-17T20:48:57.543Z,13.37
2022-09-17T20:51:26.679Z,13.98
2022-09-17T20:53:53.413Z,13.98
2022-09-17T20:56:22.608Z,14.42
2022-09-17T20:59:08.092Z,14.05
2022-09-17T21:01:37.303Z,14.20
2022-09-17T21:04:06.250Z,13.44
2022-09-17T21:06:35.807Z,13.92
2022-09-17T21:09:03.475Z,13.51
2022-09-17T21:11:31.328Z,13.90
2022-09-17T21:13:59.042Z,13.81
2022-09-17T21:16:25.881Z,12.91
2022-09-17T21:19:01.384Z,13.36
2022-09-17T21:21:28.109Z,13.86
2022-09-17T21:23:54.757Z,12.58
2022-09-17T21:26:24.577Z,13.53
2022-09-17T21:28:55.445Z,13.36
2022-09-17T21:31:29.610Z,13.73
2022-09-17T21:34:00.875Z,13.96
2022-09-17T21:36:29.696Z,13.70
2022-09-17T21:38:59.127Z,13.79
2022-09-17T21:41:26.484Z,13.92
2022-09-17T21:43:53.253Z,13.30
2022-09-17T21:46:25.600Z,13.76
2022-09-17T21:48:54.551Z,13.87
2022-09-17T21:51:23.981Z,13.29
2022-09-17T21:53:52.334Z,13.50
2022-09-17T21:56:20.223Z,13.43
2022-09-17T21:58:51.787Z,13.63
2022-09-17T22:01:20.788Z,13.22
2022-09-17T22:03:48.085Z,13.33
2022-09-17T22:06:19.601Z,12.76
2022-09-17T22:08:46.603Z,13.38
2022-09-17T22:11:14.061Z,13.09
2022-09-17T22:13:41.153Z,12.94
2022-09-17T22:16:10.072Z,13.04
2022-09-17T22:18:37.936Z,12.76
2022-09-17T22:21:16.150Z,13.09
2022-09-17T22:23:42.644Z,13.53
2022-09-17T22:26:09.070Z,13.16
2022-09-17T22:28:35.732Z,13.43
2022-09-17T22:31:08.096Z,12.37
2022-09-17T22:33:36.851Z,13.37
2022-09-17T22:36:04.434Z,12.87
2022-09-17T22:38:31.147Z,12.52
2022-09-17T22:40:57.610Z,13.17
2022-09-17T22:43:24.071Z,12.43
2022-09-17T22:45:50.465Z,12.77
2022-09-17T22:48:17.010Z,12.40
2022-09-17T22:50:50.072Z,12.59
2022-09-17T22:53:17.308Z,13.40
2022-09-17T22:55:43.758Z,13.16
2022-09-17T22:58:10.171Z,13.04
2022-09-17T23:00:36.564Z,12.71
2022-09-17T23:03:03.003Z,13.29
2022-09-17T23:05:29.469Z,13.55
2022-09-17T23:07:55.855Z,13.32
2022-09-17T23:10:22.305Z,13.18
2022-09-17T23:12:48.686Z,12.88
2022-09-17T23:15:15.406Z,13.55
2022-09-17T23:17:42.435Z,13.21
2022-09-17T23:20:09.278Z,13.54
2022-09-17T23:22:35.655Z,13.60
2022-09-17T23:25:02.030Z,12.84
2022-09-17T23:27:28.473Z,13.57
2022-09-17T23:29:54.875Z,13.16
2022-09-17T23:32:21.357Z,13.43
2022-09-17T23:34:47.744Z,13.62
2022-09-17T23:37:14.192Z,13.25
2022-09-17T23:39:41.664Z,13.20
2022-09-17T23:42:08.069Z,13.00
2022-09-17T23:44:34.476Z,13.28
2022-09-17T23:47:00.854Z,13.77
2022-09-17T23:49:27.707Z,12.86
2022-09-17T23:51:54.101Z,13.20
2022-09-17T23:54:20.512Z,13.77
2022-09-17T23:56:46.909Z,13.23
2022-09-17T23:59:13.582Z,13.13
